Time;durP1;ratioP1;P1;durP2;ratioP2;P2;SDS_P1;SDS_P2;PMS_P1;PMS_P2;Temp;Humidity;BMP_temperature;BMP_pressure;BME280_temperature;BME280_humidity;BME280_pressure;Samples;Min_cycle;Max_cycle;Signal;HPM_P1;HPM_P2
2023/04/27 00:02:00;;;;;;;12.03;5.83;;;6.00;99.90;;;;;;4959016;28;20039;-86
2023/04/27 00:04:26;;;;;;;11.97;6.03;;;5.90;99.90;;;;;;4959359;28;20403;-86
2023/04/27 00:06:52;;;;;;;12.43;6.03;;;5.90;99.90;;;;;;4959452;28;20023;-86
2023/04/27 00:09:18;;;;;;;11.63;5.87;;;5.90;99.90;;;;;;4959216;28;20487;-86
2023/04/27 00:11:43;;;;;;;12.70;6.33;;;5.90;99.90;;;;;;4960082;28;20081;-86
2023/04/27 00:14:09;;;;;;;11.70;6.23;;;5.90;99.90;;;;;;4959197;28;20476;-86
2023/04/27 00:16:34;;;;;;;11.57;5.93;;;5.90;99.90;;;;;;4959629;28;20023;-86
2023/04/27 00:19:00;;;;;;;8.80;5.53;;;5.90;99.90;;;;;;4960213;28;20038;-86
2023/04/27 00:21:26;;;;;;;10.87;5.87;;;5.80;99.90;;;;;;4958758;28;20031;-86
2023/04/27 00:23:52;;;;;;;9.57;6.37;;;5.80;99.90;;;;;;4944717;28;20111;-86
2023/04/27 00:26:19;;;;;;;11.80;5.80;;;5.80;99.90;;;;;;4959894;28;20055;-86
2023/04/27 00:28:45;;;;;;;10.73;6.10;;;5.80;99.90;;;;;;4959292;28;21355;-86
2023/04/27 00:31:11;;;;;;;10.10;5.83;;;5.80;99.90;;;;;;4940875;28;20484;-87
2023/04/27 00:33:37;;;;;;;12.27;6.70;;;5.80;99.90;;;;;;4958187;28;20057;-86
2023/04/27 00:36:02;;;;;;;12.40;6.27;;;5.80;99.90;;;;;;4959432;28;20091;-86
2023/04/27 00:38:29;;;;;;;11.33;6.23;;;5.90;99.90;;;;;;4959003;28;20030;-86
2023/04/27 00:41:05;;;;;;;9.83;6.30;;;5.90;99.90;;;;;;4958438;28;20035;-86
2023/04/27 00:43:31;;;;;;;8.80;6.27;;;5.90;99.90;;;;;;4959462;28;20046;-86
2023/04/27 00:45:58;;;;;;;11.40;6.40;;;5.90;99.90;;;;;;4959360;28;20510;-86
2023/04/27 00:48:24;;;;;;;11.73;7.10;;;5.90;99.90;;;;;;4958120;28;20035;-86
2023/04/27 00:50:50;;;;;;;11.43;6.17;;;5.80;99.90;;;;;;4957587;28;20034;-86
2023/04/27 00:53:16;;;;;;;12.30;5.90;;;5.90;99.90;;;;;;4958453;28;20065;-86
2023/04/27 00:55:42;;;;;;;10.33;6.30;;;5.90;99.90;;;;;;4958548;28;20023;-86
2023/04/27 00:58:07;;;;;;;13.63;7.07;;;5.90;99.90;;;;;;4958474;28;20105;-86
2023/04/27 01:00:36;;;;;;;10.13;6.60;;;5.90;99.90;;;;;;4957726;28;20049;-86
2023/04/27 01:03:03;;;;;;;10.73;6.17;;;5.90;99.90;;;;;;4958360;28;20035;-85
2023/04/27 01:05:29;;;;;;;10.23;6.37;;;5.90;99.90;;;;;;4958609;28;20376;-86
2023/04/27 01:07:55;;;;;;;10.03;7.13;;;5.90;99.90;;;;;;4958282;28;20027;-86
2023/04/27 01:10:20;;;;;;;9.93;5.93;;;5.90;99.90;;;;;;4956410;28;20050;-86
2023/04/27 01:12:46;;;;;;;12.63;6.40;;;5.90;99.90;;;;;;4958043;28;20031;-86
2023/04/27 01:15:12;;;;;;;13.83;7.30;;;5.90;99.90;;;;;;4958536;28;20042;-86
2023/04/27 01:17:37;;;;;;;10.57;6.70;;;5.90;99.90;;;;;;4958772;28;20019;-86
2023/04/27 01:20:06;;;;;;;15.93;6.67;;;5.90;99.90;;;;;;4959320;28;20050;-87
2023/04/27 01:22:31;;;;;;;9.60;6.60;;;5.90;99.90;;;;;;4958479;28;20043;-86
2023/04/27 01:24:57;;;;;;;9.10;6.53;;;5.90;99.90;;;;;;4958455;28;20038;-86
2023/04/27 01:27:23;;;;;;;13.33;7.37;;;5.90;99.90;;;;;;4957801;28;20031;-85
2023/04/27 01:29:48;;;;;;;10.70;6.10;;;5.90;99.90;;;;;;4957187;28;20031;-86
2023/04/27 01:32:14;;;;;;;12.53;6.60;;;5.90;99.90;;;;;;4957640;28;20022;-86
2023/04/27 01:34:39;;;;;;;11.37;6.20;;;5.90;99.90;;;;;;4958560;28;20047;-86
2023/04/27 01:37:05;;;;;;;12.50;6.50;;;5.90;99.90;;;;;;4956760;28;20035;-86
2023/04/27 01:39:31;;;;;;;8.50;6.10;;;5.80;99.90;;;;;;4956747;28;20042;-86
2023/04/27 01:41:56;;;;;;;9.93;5.70;;;5.80;99.90;;;;;;4956201;28;20171;-86
2023/04/27 01:44:22;;;;;;;10.20;6.47;;;5.80;99.90;;;;;;4958651;28;20035;-86
2023/04/27 01:46:48;;;;;;;10.93;6.23;;;5.80;99.90;;;;;;4957856;28;20054;-86
2023/04/27 01:49:14;;;;;;;10.23;6.40;;;5.80;99.90;;;;;;4957643;28;20040;-86
2023/04/27 01:51:40;;;;;;;11.23;6.03;;;5.70;99.90;;;;;;4958408;28;20033;-85
2023/04/27 01:54:05;;;;;;;13.80;6.00;;;5.70;99.90;;;;;;4958760;28;20219;-86
2023/04/27 01:56:31;;;;;;;10.43;6.30;;;5.70;99.90;;;;;;4958923;28;20031;-86
2023/04/27 01:58:56;;;;;;;12.63;6.87;;;5.60;99.90;;;;;;4958551;28;20031;-85
2023/04/27 02:01:23;;;;;;;11.63;6.80;;;5.60;99.90;;;;;;4958301;28;20043;-86
2023/04/27 02:03:48;;;;;;;13.10;7.30;;;5.50;99.90;;;;;;4959791;28;20031;-86
2023/04/27 02:06:14;;;;;;;9.77;6.07;;;5.50;99.90;;;;;;4958496;28;20041;-86
2023/04/27 02:08:39;;;;;;;13.53;6.27;;;5.40;99.90;;;;;;4965863;28;20103;-87
2023/04/27 02:11:05;;;;;;;12.77;6.47;;;5.40;99.90;;;;;;4965670;28;20054;-87
2023/04/27 02:13:30;;;;;;;16.67;7.67;;;5.30;99.90;;;;;;4970200;28;20046;-86
2023/04/27 02:15:56;;;;;;;12.07;7.00;;;5.30;99.90;;;;;;4973224;28;20050;-86
2023/04/27 02:18:23;;;;;;;12.33;7.20;;;5.20;99.90;;;;;;4971815;28;20059;-86
2023/04/27 02:20:48;;;;;;;14.57;7.50;;;5.20;99.90;;;;;;4967698;28;20027;-86
2023/04/27 02:23:14;;;;;;;10.73;7.37;;;5.10;99.90;;;;;;4945718;28;20377;-86
2023/04/27 02:25:45;;;;;;;9.97;6.87;;;5.00;99.90;;;;;;4963967;28;20051;-86
2023/04/27 02:28:13;;;;;;;10.77;6.43;;;5.00;99.90;;;;;;4976366;28;20031;-87
2023/04/27 02:30:39;;;;;;;12.33;6.97;;;5.00;99.90;;;;;;4964513;28;20032;-87
2023/04/27 02:33:05;;;;;;;12.47;8.17;;;5.00;99.90;;;;;;4961131;28;20033;-87
2023/04/27 02:35:32;;;;;;;12.80;7.90;;;4.90;99.90;;;;;;4960327;28;20069;-87
2023/04/27 02:37:57;;;;;;;12.73;8.00;;;4.90;99.90;;;;;;4961688;28;20042;-87
2023/04/27 02:40:23;;;;;;;17.07;8.80;;;4.90;99.90;;;;;;4960806;28;20685;-87
2023/04/27 02:42:49;;;;;;;16.03;8.00;;;4.80;99.90;;;;;;4959089;28;20031;-87
2023/04/27 02:45:15;;;;;;;12.63;7.80;;;4.80;99.90;;;;;;4960247;28;21498;-87
2023/04/27 02:47:40;;;;;;;12.57;8.30;;;4.70;99.90;;;;;;4959720;28;20086;-87
2023/04/27 02:50:06;;;;;;;12.70;8.47;;;4.70;99.90;;;;;;4959468;28;20035;-87
2023/04/27 02:52:32;;;;;;;13.57;7.97;;;4.70;99.90;;;;;;4960632;28;20484;-87
2023/04/27 02:54:58;;;;;;;15.73;8.40;;;4.70;99.90;;;;;;4963288;28;20042;-86
2023/04/27 02:57:23;;;;;;;12.30;7.83;;;4.60;99.90;;;;;;4960393;28;20145;-87
2023/04/27 02:59:49;;;;;;;16.27;8.00;;;4.60;99.90;;;;;;4962480;28;20059;-87
2023/04/27 03:02:15;;;;;;;13.20;7.73;;;4.50;99.90;;;;;;4963878;28;20109;-87
2023/04/27 03:04:40;;;;;;;15.10;7.73;;;4.50;99.90;;;;;;4960598;28;20814;-87
2023/04/27 03:07:06;;;;;;;16.50;8.90;;;4.50;99.90;;;;;;4960615;28;20061;-87
2023/04/27 03:09:32;;;;;;;14.07;7.47;;;4.40;99.90;;;;;;4942388;28;20078;-87
2023/04/27 03:11:57;;;;;;;13.20;7.97;;;4.40;99.90;;;;;;4960172;28;20027;-87
2023/04/27 03:14:23;;;;;;;13.10;7.70;;;4.30;99.90;;;;;;4960945;28;20049;-87
2023/04/27 03:16:48;;;;;;;15.60;8.03;;;4.30;99.90;;;;;;4942945;28;20030;-87
2023/04/27 03:19:14;;;;;;;12.93;8.37;;;4.20;99.90;;;;;;4959452;28;20095;-87
2023/04/27 03:21:40;;;;;;;13.57;7.93;;;4.20;99.90;;;;;;4960300;28;20070;-87
2023/04/27 03:24:05;;;;;;;14.00;8.00;;;4.20;99.90;;;;;;4961135;28;20039;-87
2023/04/27 03:26:31;;;;;;;14.60;8.43;;;4.20;99.90;;;;;;4960683;28;20095;-88
2023/04/27 03:28:56;;;;;;;10.37;7.50;;;4.20;99.90;;;;;;4960166;28;20042;-86
2023/04/27 03:31:22;;;;;;;14.90;8.00;;;4.20;99.90;;;;;;4960800;28;20018;-87
2023/04/27 03:33:48;;;;;;;17.10;8.50;;;4.20;99.90;;;;;;4961163;28;20641;-87
2023/04/27 03:36:13;;;;;;;14.50;7.73;;;4.20;99.90;;;;;;4961128;28;20019;-87
2023/04/27 03:38:39;;;;;;;16.03;7.87;;;4.10;99.90;;;;;;4960164;28;20051;-87
2023/04/27 03:41:04;;;;;;;15.10;8.60;;;4.10;99.90;;;;;;4961346;28;20028;-87
2023/04/27 03:43:30;;;;;;;15.00;8.33;;;4.10;99.90;;;;;;4960877;28;20042;-87
2023/04/27 03:45:56;;;;;;;18.47;9.03;;;4.10;99.90;;;;;;4960436;28;20019;-87
2023/04/27 03:48:21;;;;;;;14.13;8.37;;;4.10;99.90;;;;;;4960034;28;20042;-87
2023/04/27 03:50:47;;;;;;;13.37;8.30;;;4.10;99.90;;;;;;4958507;28;20154;-87
2023/04/27 03:53:14;;;;;;;16.67;10.03;;;4.00;99.90;;;;;;4959673;28;20051;-87
2023/04/27 03:55:41;;;;;;;19.73;11.20;;;4.00;99.90;;;;;;4959732;28;20031;-87
2023/04/27 03:58:07;;;;;;;17.03;11.07;;;4.00;99.90;;;;;;4960710;28;20035;-87
2023/04/27 04:00:34;;;;;;;19.27;12.00;;;4.00;99.90;;;;;;4959175;28;20459;-87
2023/04/27 04:03:00;;;;;;;22.10;11.90;;;4.00;99.90;;;;;;4960830;28;20118;-87
2023/04/27 04:05:25;;;;;;;17.50;11.43;;;4.00;99.90;;;;;;4961219;28;20114;-87
2023/04/27 04:07:51;;;;;;;18.80;11.17;;;4.00;99.90;;;;;;4967008;28;20455;-87
2023/04/27 04:10:17;;;;;;;17.20;11.73;;;4.10;99.90;;;;;;4962473;28;20122;-87
2023/04/27 04:12:43;;;;;;;24.13;13.37;;;4.10;99.90;;;;;;4965795;28;20031;-88
2023/04/27 04:15:09;;;;;;;29.93;16.10;;;4.10;99.90;;;;;;4949333;28;20035;-87
2023/04/27 04:17:36;;;;;;;29.33;17.53;;;4.10;99.90;;;;;;4944159;28;20035;-87
2023/04/27 04:20:07;;;;;;;30.33;17.80;;;4.20;99.90;;;;;;4959599;28;20042;-88
2023/04/27 04:22:33;;;;;;;29.87;15.83;;;4.20;99.90;;;;;;4959277;28;20606;-87
2023/04/27 04:24:58;;;;;;;25.07;13.33;;;4.20;99.90;;;;;;4958131;28;20122;-88
2023/04/27 04:27:24;;;;;;;24.63;12.00;;;4.30;99.90;;;;;;4959748;28;20041;-88
2023/04/27 04:29:49;;;;;;;21.13;12.27;;;4.30;99.90;;;;;;4959989;28;20070;-87
2023/04/27 04:32:17;;;;;;;28.13;14.97;;;4.30;99.90;;;;;;4959010;28;20037;-87
2023/04/27 04:34:43;;;;;;;24.77;13.63;;;4.40;99.90;;;;;;4959487;28;20501;-87
2023/04/27 04:37:08;;;;;;;21.40;11.63;;;4.40;99.90;;;;;;4959008;28;20026;-87
2023/04/27 04:39:34;;;;;;;21.83;12.13;;;4.40;99.90;;;;;;4959469;28;20062;-88
2023/04/27 04:42:00;;;;;;;21.33;12.73;;;4.50;99.90;;;;;;4959597;28;20040;-87
2023/04/27 04:44:25;;;;;;;14.23;10.03;;;4.50;99.90;;;;;;4960489;28;20653;-84
2023/04/27 04:46:51;;;;;;;16.23;10.20;;;4.50;99.90;;;;;;4965864;28;20062;-84
2023/04/27 04:49:17;;;;;;;18.67;9.30;;;4.60;99.90;;;;;;4962956;28;20038;-85
2023/04/27 04:51:44;;;;;;;17.00;9.80;;;4.60;99.90;;;;;;4965696;28;20429;-84
2023/04/27 04:54:10;;;;;;;16.37;9.33;;;4.70;99.90;;;;;;4963198;28;20042;-85
2023/04/27 04:56:36;;;;;;;15.77;8.83;;;4.70;99.90;;;;;;4963577;28;20090;-86
2023/04/27 04:59:02;;;;;;;16.70;8.47;;;4.70;99.90;;;;;;4961748;28;20154;-87
2023/04/27 05:01:28;;;;;;;15.47;8.90;;;4.80;99.90;;;;;;4962575;28;20035;-89
2023/04/27 05:03:56;;;;;;;12.17;8.53;;;4.80;99.90;;;;;;4957630;28;20514;-89
2023/04/27 05:06:21;;;;;;;15.50;8.40;;;4.90;99.90;;;;;;4962520;28;20543;-89
2023/04/27 05:08:49;;;;;;;15.63;9.07;;;4.90;99.90;;;;;;4960146;28;20066;-88
2023/04/27 05:11:15;;;;;;;14.87;8.13;;;5.00;99.90;;;;;;4957639;28;20447;-89
2023/04/27 05:13:40;;;;;;;12.13;8.17;;;5.00;99.90;;;;;;4954697;28;20034;-89
2023/04/27 05:16:06;;;;;;;13.10;8.17;;;5.10;99.90;;;;;;4956544;28;20704;-88
2023/04/27 05:18:33;;;;;;;14.93;8.23;;;5.10;99.90;;;;;;4958968;28;20054;-89
2023/04/27 05:20:59;;;;;;;17.40;7.83;;;5.10;99.90;;;;;;4957946;28;20491;-86
2023/04/27 05:23:25;;;;;;;11.40;7.50;;;5.20;99.90;;;;;;4954125;28;20042;-86
2023/04/27 05:25:50;;;;;;;12.63;7.87;;;5.20;99.90;;;;;;4954660;28;20038;-86
2023/04/27 05:28:16;;;;;;;19.50;7.53;;;5.30;99.90;;;;;;4955701;28;20031;-87
2023/04/27 05:30:42;;;;;;;16.93;7.90;;;5.40;99.90;;;;;;4954284;28;20031;-86
2023/04/27 05:33:07;;;;;;;12.47;8.17;;;5.50;99.90;;;;;;4953659;28;20047;-86
2023/04/27 05:35:33;;;;;;;13.63;8.03;;;5.60;99.90;;;;;;4954548;28;20066;-86
2023/04/27 05:37:59;;;;;;;14.63;9.43;;;5.70;99.90;;;;;;4955766;28;20027;-86
2023/04/27 05:40:25;;;;;;;16.83;9.20;;;5.80;99.90;;;;;;4954683;28;20071;-86
2023/04/27 05:42:51;;;;;;;17.77;10.43;;;5.90;99.90;;;;;;4955695;28;20114;-86
2023/04/27 05:45:16;;;;;;;20.07;9.67;;;6.00;99.90;;;;;;4955012;28;20038;-86
2023/04/27 05:47:42;;;;;;;17.80;9.93;;;6.10;99.90;;;;;;4957668;28;20042;-79
2023/04/27 05:50:08;;;;;;;16.27;9.97;;;6.20;99.90;;;;;;4956782;28;20046;-86
2023/04/27 05:52:34;;;;;;;15.00;9.30;;;6.30;99.90;;;;;;4959800;28;20503;-87
2023/04/27 05:54:59;;;;;;;14.93;8.93;;;6.30;99.90;;;;;;4959363;28;20041;-87
2023/04/27 05:57:25;;;;;;;15.40;8.03;;;6.50;99.90;;;;;;4960990;28;20026;-86
2023/04/27 05:59:51;;;;;;;17.77;8.50;;;6.50;99.90;;;;;;4960395;28;20643;-86
2023/04/27 06:02:18;;;;;;;14.33;8.20;;;6.60;99.90;;;;;;4959762;28;20099;-86
2023/04/27 06:04:44;;;;;;;12.50;8.43;;;6.70;99.90;;;;;;4957882;28;20035;-85
2023/04/27 06:07:11;;;;;;;13.13;8.03;;;6.80;99.90;;;;;;4984570;23;20193;-86
2023/04/27 06:09:37;;;;;;;14.47;9.33;;;6.90;99.90;;;;;;4958693;28;20130;-85
2023/04/27 06:12:03;;;;;;;13.77;8.40;;;6.90;99.90;;;;;;4954398;28;20033;-85
2023/04/27 06:14:30;;;;;;;18.80;8.80;;;7.10;99.90;;;;;;4952551;28;20086;-85
2023/04/27 06:16:55;;;;;;;13.50;7.50;;;7.20;99.90;;;;;;4949405;28;20038;-85
2023/04/27 06:19:21;;;;;;;16.43;7.00;;;7.30;99.90;;;;;;4952337;28;20038;-85
2023/04/27 06:21:47;;;;;;;13.33;6.83;;;7.40;99.90;;;;;;4954822;28;20035;-82
2023/04/27 06:24:12;;;;;;;19.83;8.23;;;7.50;99.90;;;;;;4956571;28;20097;-83
2023/04/27 06:26:38;;;;;;;15.23;6.90;;;7.60;99.90;;;;;;4956488;28;20077;-84
2023/04/27 06:29:06;;;;;;;11.47;6.80;;;7.70;99.90;;;;;;4957087;28;20446;-83
2023/04/27 06:31:32;;;;;;;10.43;6.50;;;7.80;99.90;;;;;;4948482;28;20034;-84
2023/04/27 06:33:58;;;;;;;14.37;7.03;;;8.00;99.90;;;;;;4955518;28;20039;-84
2023/04/27 06:36:26;;;;;;;11.93;6.90;;;8.10;99.90;;;;;;4953220;28;20601;-84
2023/04/27 06:38:55;;;;;;;11.30;6.83;;;8.20;99.90;;;;;;4955887;28;20140;-84
2023/04/27 06:41:21;;;;;;;12.23;6.70;;;8.30;99.90;;;;;;4952801;28;20031;-84
2023/04/27 06:43:46;;;;;;;14.93;7.03;;;8.50;99.90;;;;;;4954802;28;20038;-83
2023/04/27 06:46:12;;;;;;;12.17;6.87;;;8.60;99.90;;;;;;4956889;28;20030;-84
2023/04/27 06:48:37;;;;;;;11.50;7.13;;;8.70;99.90;;;;;;4958917;28;20034;-85
2023/04/27 06:51:03;;;;;;;18.27;7.03;;;8.80;99.90;;;;;;4957548;28;20023;-85
2023/04/27 06:53:30;;;;;;;18.90;7.70;;;8.90;99.90;;;;;;4957790;28;20042;-84
2023/04/27 06:55:55;;;;;;;20.90;7.63;;;9.00;99.90;;;;;;4959429;28;20054;-84
2023/04/27 06:58:21;;;;;;;15.87;8.93;;;9.10;99.90;;;;;;4960536;28;20562;-84
2023/04/27 07:00:47;;;;;;;22.33;13.27;;;9.10;99.90;;;;;;4957139;28;20031;-84
2023/04/27 07:03:13;;;;;;;14.77;7.97;;;9.20;99.90;;;;;;4959885;28;21091;-84
2023/04/27 07:05:39;;;;;;;13.50;8.80;;;9.20;99.90;;;;;;4961732;28;20038;-84
2023/04/27 07:08:05;;;;;;;19.30;8.23;;;9.30;99.90;;;;;;4959640;28;20121;-85
2023/04/27 07:10:30;;;;;;;16.50;7.07;;;9.40;99.90;;;;;;4959332;28;20121;-85
2023/04/27 07:12:56;;;;;;;15.93;7.43;;;9.50;99.90;;;;;;4961401;28;20126;-84
2023/04/27 07:15:22;;;;;;;19.00;7.50;;;9.60;99.90;;;;;;4960680;28;20031;-84
2023/04/27 07:17:48;;;;;;;11.63;6.70;;;9.70;99.90;;;;;;4961244;28;20095;-85
2023/04/27 07:20:13;;;;;;;10.60;6.73;;;9.80;99.90;;;;;;4959316;28;20046;-84
2023/04/27 07:22:39;;;;;;;13.20;7.07;;;9.90;99.90;;;;;;4960156;28;20023;-84
2023/04/27 07:25:05;;;;;;;12.33;6.50;;;10.00;99.90;;;;;;4960158;28;20038;-85
2023/04/27 07:27:31;;;;;;;13.53;6.77;;;10.10;99.90;;;;;;4959830;28;20077;-85
2023/04/27 07:29:58;;;;;;;15.37;6.67;;;10.10;99.90;;;;;;4961134;28;20134;-85
2023/04/27 07:32:24;;;;;;;10.50;6.43;;;10.20;99.90;;;;;;4960806;28;21499;-84
2023/04/27 07:34:51;;;;;;;13.33;6.27;;;10.40;99.90;;;;;;4962061;28;21121;-86
2023/04/27 07:37:16;;;;;;;10.57;6.27;;;10.40;99.90;;;;;;4960550;28;20063;-84
2023/04/27 07:39:42;;;;;;;14.77;5.90;;;10.50;99.90;;;;;;4962122;28;20093;-85
2023/04/27 07:42:07;;;;;;;11.60;5.88;;;10.70;99.90;;;;;;4962147;28;20053;-85
2023/04/27 07:44:33;;;;;;;9.13;5.90;;;10.80;99.90;;;;;;4960606;28;20053;-84
2023/04/27 07:47:02;;;;;;;10.90;6.10;;;11.00;99.90;;;;;;4960020;28;20381;-84
2023/04/27 07:49:28;;;;;;;9.17;5.93;;;11.00;99.90;;;;;;4960346;28;20035;-84
2023/04/27 07:51:53;;;;;;;12.40;6.35;;;11.10;99.90;;;;;;4956776;28;20511;-85
2023/04/27 07:54:19;;;;;;;13.15;6.28;;;11.20;99.90;;;;;;4959194;28;20093;-85
2023/04/27 07:56:45;;;;;;;9.90;5.80;;;11.20;99.90;;;;;;4957478;28;20031;-86
2023/04/27 07:59:10;;;;;;;21.00;7.00;;;11.30;99.90;;;;;;4958102;28;20057;-87
2023/04/27 08:01:36;;;;;;;14.40;6.07;;;11.40;99.90;;;;;;4958454;28;20041;-85
2023/04/27 08:04:02;;;;;;;12.88;6.18;;;11.50;99.90;;;;;;4959304;28;20035;-85
2023/04/27 08:06:28;;;;;;;17.33;6.72;;;11.60;99.90;;;;;;4958221;28;20027;-85
2023/04/27 08:08:57;;;;;;;14.50;5.40;;;11.60;99.90;;;;;;4955217;28;20049;-89
2023/04/27 08:11:23;;;;;;;13.43;7.32;;;11.70;99.90;;;;;;4954046;28;20118;-83
2023/04/27 08:13:48;;;;;;;12.30;6.00;;;11.90;99.90;;;;;;4957267;28;20057;-84
2023/04/27 08:16:14;;;;;;;14.15;5.95;;;11.90;99.90;;;;;;4957897;28;20063;-85
2023/04/27 08:18:39;;;;;;;12.65;6.25;;;11.90;99.90;;;;;;4958379;28;20502;-83
2023/04/27 08:21:05;;;;;;;13.05;6.10;;;11.90;99.90;;;;;;4957111;28;20510;-85
2023/04/27 08:23:31;;;;;;;10.65;5.57;;;12.00;99.90;;;;;;4958455;28;20590;-87
2023/04/27 08:25:57;;;;;;;19.45;6.43;;;12.10;99.90;;;;;;4957543;28;20036;-85
2023/04/27 08:28:23;;;;;;;14.63;4.97;;;12.10;99.90;;;;;;4958356;28;20518;-85
2023/04/27 08:30:49;;;;;;;11.93;5.78;;;12.40;99.90;;;;;;4955760;28;20043;-85
2023/04/27 08:33:14;;;;;;;12.55;6.35;;;12.50;99.90;;;;;;4958140;28;20515;-84
2023/04/27 08:35:40;;;;;;;12.55;5.80;;;12.60;99.90;;;;;;4956005;28;20106;-84
2023/04/27 08:38:06;;;;;;;8.73;4.88;;;12.70;99.90;;;;;;4957303;28;20030;-85
2023/04/27 08:40:32;;;;;;;10.45;4.88;;;12.70;99.90;;;;;;4956558;28;20042;-84
2023/04/27 08:42:59;;;;;;;10.35;5.82;;;12.70;99.90;;;;;;4957455;28;20023;-86
2023/04/27 08:45:26;;;;;;;12.13;5.30;;;12.80;99.90;;;;;;4957350;28;20065;-86
2023/04/27 08:47:52;;;;;;;10.68;5.60;;;12.80;99.90;;;;;;4953208;28;20482;-85
2023/04/27 08:50:18;;;;;;;8.13;4.93;;;12.90;99.90;;;;;;4958848;28;20039;-87
2023/04/27 08:52:45;;;;;;;6.50;5.35;;;13.00;99.90;;;;;;4955730;28;20122;-87
2023/04/27 08:55:11;;;;;;;9.32;5.07;;;13.10;99.90;;;;;;4957658;28;20057;-84
2023/04/27 08:57:37;;;;;;;14.45;5.43;;;13.10;99.90;;;;;;4957301;28;20034;-90
2023/04/27 09:00:13;;;;;;;10.68;5.70;;;13.10;99.90;;;;;;4957841;28;20042;-86
2023/04/27 09:02:45;;;;;;;10.88;5.68;;;13.20;99.90;;;;;;4959772;28;20026;-87
2023/04/27 09:05:15;;;;;;;10.40;5.25;;;13.30;99.90;;;;;;4966780;28;20109;-86
2023/04/27 09:07:41;;;;;;;9.75;6.13;;;13.40;99.90;;;;;;4961070;28;20045;-91
2023/04/27 09:10:07;;;;;;;15.70;6.20;;;13.60;99.90;;;;;;4961226;28;20121;-86
2023/04/27 09:12:32;;;;;;;11.55;5.45;;;13.70;99.90;;;;;;4953053;28;21436;-88
2023/04/27 09:15:01;;;;;;;10.95;7.15;;;13.80;99.90;;;;;;4957655;28;20043;-85
2023/04/27 09:17:27;;;;;;;10.32;5.50;;;13.80;99.90;;;;;;4957642;28;20027;-87
2023/04/27 09:20:12;;;;;;;8.88;5.60;;;13.90;99.90;;;;;;4957413;28;20184;-85
2023/04/27 09:22:51;;;;;;;11.57;5.33;;;14.10;99.90;;;;;;4958313;28;20072;-84
2023/04/27 09:25:31;;;;;;;13.90;5.28;;;14.10;99.90;;;;;;4954537;28;20324;-88
2023/04/27 09:27:57;;;;;;;12.30;4.97;;;14.40;99.90;;;;;;4953366;28;20034;-89
2023/04/27 09:30:24;;;;;;;12.25;5.93;;;14.60;99.90;;;;;;4953190;28;21502;-89
2023/04/27 09:32:54;;;;;;;13.05;5.78;;;14.60;99.90;;;;;;4952446;28;20157;-89
2023/04/27 09:35:31;;;;;;;12.38;5.93;;;14.40;99.90;;;;;;4952089;28;20416;-92
2023/04/27 09:37:58;;;;;;;12.70;6.45;;;14.20;99.90;;;;;;4952784;28;20547;-88
2023/04/27 09:40:28;;;;;;;8.82;4.60;;;14.10;99.90;;;;;;4953037;28;20110;-89
2023/04/27 09:43:02;;;;;;;7.88;4.35;;;13.90;99.90;;;;;;4953356;28;20533;-90
2023/04/27 09:45:28;;;;;;;6.85;3.90;;;13.80;99.90;;;;;;4952991;28;20410;-88
2023/04/27 09:47:53;;;;;;;7.45;3.97;;;13.90;99.90;;;;;;4952948;28;20090;-88
2023/04/27 09:50:20;;;;;;;11.50;5.53;;;13.90;99.90;;;;;;4950530;28;20038;-92
2023/04/27 09:52:46;;;;;;;9.90;4.80;;;13.90;99.90;;;;;;4952530;28;20672;-89
2023/04/27 09:55:19;;;;;;;6.95;4.00;;;14.00;99.90;;;;;;4954255;28;20035;-88
2023/04/27 09:57:57;;;;;;;5.28;3.25;;;14.30;99.90;;;;;;4952948;28;20105;-89
2023/04/27 10:00:34;;;;;;;8.75;4.35;;;14.50;99.90;;;;;;4951321;28;20114;-88
2023/04/27 10:03:08;;;;;;;6.90;4.13;;;14.70;99.90;;;;;;4952331;28;20779;-80
2023/04/27 10:06:02;;;;;;;8.05;4.18;;;14.80;99.90;;;;;;4953606;28;20459;-79
2023/04/27 10:08:29;;;;;;;8.75;3.40;;;14.90;99.90;;;;;;4959527;28;20121;-87
2023/04/27 10:10:54;;;;;;;5.90;3.50;;;15.10;99.90;;;;;;4959170;28;20026;-87
2023/04/27 10:13:22;;;;;;;6.50;3.75;;;15.30;99.90;;;;;;4959423;28;20109;-87
2023/04/27 10:15:48;;;;;;;6.50;3.75;;;15.50;99.90;;;;;;4956790;28;21395;-86
2023/04/27 10:18:25;;;;;;;10.50;3.95;;;15.50;99.90;;;;;;4956977;28;20020;-87
2023/04/27 10:20:51;;;;;;;6.57;3.45;;;15.50;99.90;;;;;;4955086;28;20035;-88
2023/04/27 10:23:26;;;;;;;6.03;3.83;;;15.70;99.90;;;;;;4953933;28;20035;-88
2023/04/27 10:25:53;;;;;;;6.18;3.63;;;15.80;99.90;;;;;;4954622;28;20109;-87
2023/04/27 10:28:20;;;;;;;7.93;3.85;;;15.60;99.90;;;;;;4956838;28;20126;-85
2023/04/27 10:30:47;;;;;;;7.05;3.63;;;15.70;99.90;;;;;;4959447;28;20080;-85
2023/04/27 10:33:16;;;;;;;8.13;3.42;;;15.70;99.90;;;;;;4965515;28;20097;-87
2023/04/27 10:35:52;;;;;;;6.40;3.45;;;15.50;99.90;;;;;;4965544;28;20031;-88
2023/04/27 10:38:22;;;;;;;7.50;3.50;;;15.50;99.90;;;;;;4968273;28;20027;-84
2023/04/27 10:41:01;;;;;;;8.98;3.50;;;15.60;99.90;;;;;;4968902;28;20050;-86
2023/04/27 10:43:29;;;;;;;8.07;3.50;;;15.60;99.90;;;;;;4972201;28;20031;-84
2023/04/27 10:46:06;;;;;;;9.25;3.85;;;15.90;99.90;;;;;;4971263;28;20102;-88
2023/04/27 10:48:32;;;;;;;7.75;3.72;;;16.30;99.90;;;;;;4971508;28;20518;-84
2023/04/27 10:51:00;;;;;;;6.45;3.85;;;16.50;99.90;;;;;;4970119;28;20035;-89
2023/04/27 10:53:25;;;;;;;8.13;3.60;;;16.30;99.90;;;;;;4970587;28;20142;-85
2023/04/27 10:55:55;;;;;;;7.32;3.75;;;15.90;99.90;;;;;;4966985;28;20157;-85
2023/04/27 10:58:23;;;;;;;8.35;3.45;;;15.80;99.90;;;;;;4962852;28;20031;-86
2023/04/27 11:00:49;;;;;;;6.05;3.42;;;15.90;99.90;;;;;;4962500;28;20417;-85
2023/04/27 11:03:22;;;;;;;6.45;3.58;;;16.00;99.90;;;;;;4960786;28;20041;-79
2023/04/27 11:06:00;;;;;;;6.68;3.75;;;16.10;99.90;;;;;;4956834;28;20047;-79
2023/04/27 11:08:25;;;;;;;9.70;4.00;;;15.90;99.90;;;;;;4957503;28;20122;-79
2023/04/27 11:10:51;;;;;;;6.80;3.60;;;15.80;99.90;;;;;;4956481;28;20045;-91
2023/04/27 11:13:18;;;;;;;10.52;3.92;;;15.60;99.90;;;;;;4956538;28;20043;-91
2023/04/27 11:15:48;;;;;;;8.50;4.03;;;15.70;99.90;;;;;;4956523;28;20026;-91
2023/04/27 11:18:16;;;;;;;9.40;4.63;;;15.80;99.90;;;;;;4956683;28;20054;-91
2023/04/27 11:20:43;;;;;;;9.57;3.60;;;16.20;99.90;;;;;;4955882;28;20037;-91
2023/04/27 11:23:10;;;;;;;7.13;3.63;;;16.20;99.90;;;;;;4956254;28;20502;-91
2023/04/27 11:25:37;;;;;;;6.65;3.67;;;16.10;99.90;;;;;;4955970;28;20463;-91
2023/04/27 11:28:03;;;;;;;5.18;3.45;;;16.00;99.90;;;;;;4956095;28;20764;-91
2023/04/27 11:30:30;;;;;;;7.18;3.80;;;16.40;99.90;;;;;;4955652;28;20050;-91
2023/04/27 11:32:56;;;;;;;6.35;3.65;;;16.50;99.90;;;;;;4956684;28;20031;-91
2023/04/27 11:35:32;;;;;;;6.57;3.70;;;16.50;99.90;;;;;;4955980;28;20046;-91
2023/04/27 11:38:01;;;;;;;8.35;3.65;;;16.60;99.90;;;;;;4957351;28;20071;-90
2023/04/27 11:40:28;;;;;;;7.90;3.78;;;16.50;99.90;;;;;;4954056;28;20027;-91
2023/04/27 11:43:03;;;;;;;5.93;3.33;;;16.60;99.90;;;;;;4956219;28;20114;-91
2023/04/27 11:45:28;;;;;;;;;;;16.80;99.90;;;;;;4956923;28;20046;-91
2023/04/27 11:47:56;;;;;;;5.43;3.40;;;16.70;99.90;;;;;;4956057;28;19914;-91
2023/04/27 11:50:27;;;;;;;6.65;3.67;;;16.90;99.90;;;;;;4955497;28;20031;-91
2023/04/27 11:52:52;;;;;;;6.70;3.85;;;16.90;99.90;;;;;;4955955;28;20027;-91
2023/04/27 11:55:21;;;;;;;7.78;3.85;;;16.90;99.90;;;;;;4955407;28;20043;-90
2023/04/27 11:57:47;;;;;;;10.18;3.40;;;16.70;99.90;;;;;;4955736;28;20107;-91
2023/04/27 12:00:13;;;;;;;8.45;3.30;;;16.80;99.90;;;;;;4955401;28;20034;-91
2023/04/27 12:02:40;;;;;;;6.28;3.20;;;16.90;99.90;;;;;;4963069;28;20526;-91
2023/04/27 12:05:08;;;;;;;8.45;2.92;;;16.90;99.90;;;;;;4957010;28;20407;-90
2023/04/27 12:07:34;;;;;;;6.57;3.15;;;16.90;99.90;;;;;;4955998;28;20504;-91
2023/04/27 12:10:00;;;;;;;7.15;3.47;;;16.70;99.90;;;;;;4960206;28;20514;-91
2023/04/27 12:12:26;;;;;;;6.57;3.40;;;16.60;99.90;;;;;;4959538;28;20133;-91
2023/04/27 12:14:52;;;;;;;6.78;3.47;;;16.60;99.90;;;;;;4956049;28;20462;-92
2023/04/27 12:17:18;;;;;;;6.82;4.05;;;16.80;99.90;;;;;;4955254;28;20039;-91
2023/04/27 12:19:43;;;;;;;8.90;3.80;;;17.00;99.90;;;;;;4955159;28;20057;-91
2023/04/27 12:22:09;;;;;;;6.60;3.55;;;17.20;99.90;;;;;;4955997;28;20035;-92
2023/04/27 12:24:36;;;;;;;5.88;3.63;;;17.20;99.90;;;;;;4956015;28;20046;-91
2023/04/27 12:27:02;;;;;;;6.50;3.28;;;17.10;99.90;;;;;;4955572;28;20161;-92
2023/04/27 12:29:28;;;;;;;5.18;3.53;;;16.90;99.90;;;;;;4955212;28;20042;-92
2023/04/27 12:31:54;;;;;;;5.90;3.50;;;16.80;99.90;;;;;;4955388;28;21044;-90
2023/04/27 12:34:20;;;;;;;8.50;3.40;;;16.90;99.90;;;;;;4954636;28;20133;-91
2023/04/27 12:36:46;;;;;;;6.95;3.00;;;17.00;99.90;;;;;;4937215;28;20100;-81
2023/04/27 12:39:25;;;;;;;8.65;3.63;;;17.20;99.90;;;;;;4955673;28;20090;-82
2023/04/27 12:41:52;;;;;;;4.75;3.30;;;17.60;99.90;;;;;;4956232;28;20544;-81
2023/04/27 12:44:18;;;;;;;7.90;3.63;;;17.90;99.90;;;;;;4956023;28;21439;-81